createdAt,value
2018-09-24T00:00:29.134Z,1.00
2018-09-24T00:01:29.154Z,1.30
2018-09-24T00:02:29.080Z,1.10
2018-09-24T00:03:29.067Z,1.20
2018-09-24T00:04:29.038Z,1.10
2018-09-24T00:05:29.016Z,1.30
2018-09-24T00:06:28.999Z,1.10
2018-09-24T00:07:28.976Z,1.10
2018-09-24T00:08:28.954Z,1.30
2018-09-24T00:09:28.937Z,1.10
2018-09-24T00:10:28.915Z,1.00
2018-09-24T00:11:28.894Z,1.20
2018-09-24T00:12:28.873Z,1.20
2018-09-24T00:13:28.850Z,1.30
2018-09-24T00:14:28.832Z,1.40
2018-09-24T00:15:28.810Z,1.40
2018-09-24T00:16:28.790Z,1.40
2018-09-24T00:17:28.770Z,1.30
2018-09-24T00:18:28.748Z,1.40
2018-09-24T00:19:28.778Z,1.20
2018-09-24T00:20:28.701Z,1.40
2018-09-24T00:21:28.688Z,1.40
2018-09-24T00:22:28.665Z,1.50
2018-09-24T00:23:28.640Z,1.20
2018-09-24T00:24:28.624Z,1.30
2018-09-24T00:25:28.602Z,1.60
2018-09-24T00:26:28.577Z,1.40
2018-09-24T00:27:28.558Z,1.40
2018-09-24T00:28:28.538Z,1.10
2018-09-24T00:29:28.528Z,1.40
2018-09-24T00:30:28.498Z,1.30
2018-09-24T00:31:28.478Z,1.50
2018-09-24T00:32:28.456Z,1.70
2018-09-24T00:33:28.437Z,1.40
2018-09-24T00:34:28.412Z,1.40
2018-09-24T00:35:28.395Z,1.80
2018-09-24T00:36:28.371Z,1.50
2018-09-24T00:37:28.351Z,2.10
2018-09-24T00:38:28.328Z,1.50
2018-09-24T00:39:28.311Z,1.40
2018-09-24T00:40:28.286Z,1.60
2018-09-24T00:41:28.262Z,1.50
2018-09-24T00:42:28.247Z,1.90
2018-09-24T00:43:28.248Z,2.30
2018-09-24T00:44:28.201Z,1.80
2018-09-24T00:45:28.180Z,2.10
2018-09-24T00:46:28.186Z,1.80
2018-09-24T00:47:28.140Z,1.70
2018-09-24T00:48:28.121Z,1.90
2018-09-24T00:49:28.101Z,1.50
2018-09-24T00:50:28.088Z,1.60
2018-09-24T00:51:28.053Z,1.60
2018-09-24T00:52:28.031Z,1.80
2018-09-24T00:53:28.011Z,1.80
2018-09-24T00:54:27.994Z,1.90
2018-09-24T00:55:27.967Z,2.20
2018-09-24T00:56:27.951Z,1.90
2018-09-24T00:57:27.928Z,1.40
2018-09-24T00:58:27.907Z,1.90
2018-09-24T00:59:27.887Z,1.50
2018-09-24T01:00:27.865Z,1.80
2018-09-24T01:01:27.845Z,1.60
2018-09-24T01:02:27.821Z,1.60
2018-09-24T01:03:27.813Z,1.50
2018-09-24T01:04:27.779Z,1.70
2018-09-24T01:05:27.759Z,1.90
2018-09-24T01:06:27.741Z,1.70
2018-09-24T01:07:27.718Z,1.60
2018-09-24T01:08:27.701Z,1.60
2018-09-24T01:09:27.677Z,1.50
2018-09-24T01:10:27.659Z,1.70
2018-09-24T01:11:27.635Z,1.60
2018-09-24T01:12:27.613Z,1.60
2018-09-24T01:13:27.596Z,1.80
2018-09-24T01:14:27.571Z,1.70
2018-09-24T01:15:27.547Z,1.70
2018-09-24T01:16:27.525Z,1.80
2018-09-24T01:17:27.505Z,1.70
2018-09-24T01:18:27.490Z,1.60
2018-09-24T01:19:27.463Z,1.80
2018-09-24T01:20:27.440Z,1.70
2018-09-24T01:21:27.423Z,1.50
2018-09-24T01:22:27.397Z,1.50
2018-09-24T01:23:27.385Z,1.60
2018-09-24T01:24:27.359Z,1.70
2018-09-24T01:25:27.335Z,1.50
2018-09-24T01:26:27.318Z,1.30
2018-09-24T01:27:27.297Z,1.40
2018-09-24T01:28:27.275Z,1.60
2018-09-24T01:29:27.254Z,1.50
2018-09-24T01:30:27.228Z,1.60
2018-09-24T01:31:27.214Z,1.40
2018-09-24T01:32:28.040Z,1.40
2018-09-24T01:33:27.168Z,1.50
2018-09-24T01:34:27.145Z,1.50
2018-09-24T01:35:27.123Z,1.30
2018-09-24T01:36:27.105Z,1.50
2018-09-24T01:37:27.087Z,1.40
2018-09-24T01:38:27.059Z,1.60
2018-09-24T01:39:27.043Z,1.60
2018-09-24T01:40:27.015Z,1.50
2018-09-24T01:41:26.995Z,1.40
2018-09-24T01:42:26.979Z,1.30
2018-09-24T01:43:26.955Z,1.40
2018-09-24T01:44:26.937Z,1.50
2018-09-24T01:45:26.913Z,1.50
2018-09-24T01:46:26.889Z,1.10
2018-09-24T01:47:26.875Z,1.20
2018-09-24T01:48:26.847Z,1.60
2018-09-24T01:49:26.827Z,1.50
2018-09-24T01:50:26.804Z,1.20
2018-09-24T01:51:26.783Z,1.10
2018-09-24T01:52:26.763Z,1.50
2018-09-24T01:53:26.742Z,1.30
2018-09-24T01:54:26.723Z,1.30
2018-09-24T01:55:26.706Z,1.10
2018-09-24T01:56:26.682Z,1.60
2018-09-24T01:57:26.653Z,1.20
2018-09-24T01:58:26.640Z,1.40
2018-09-24T01:59:26.613Z,1.80
2018-09-24T02:00:26.597Z,1.30
2018-09-24T02:01:26.569Z,1.50
2018-09-24T02:02:26.552Z,1.60
2018-09-24T02:03:26.531Z,1.30
2018-09-24T02:04:26.506Z,1.30
2018-09-24T02:05:26.487Z,1.40
2018-09-24T02:06:26.462Z,1.30
2018-09-24T02:07:26.441Z,1.30
2018-09-24T02:08:26.421Z,1.30
2018-09-24T02:09:26.399Z,1.40
2018-09-24T02:10:26.380Z,1.20
2018-09-24T02:11:26.362Z,1.30
2018-09-24T02:12:26.344Z,1.30
2018-09-24T02:13:26.317Z,1.50
2018-09-24T02:14:26.293Z,1.40
2018-09-24T02:15:26.273Z,1.20
2018-09-24T02:16:26.254Z,1.40
2018-09-24T02:17:26.233Z,1.40
2018-09-24T02:18:26.208Z,1.50
2018-09-24T02:19:26.189Z,1.50
2018-09-24T02:20:26.165Z,1.30
2018-09-24T02:21:26.141Z,1.10
2018-09-24T02:22:26.125Z,1.30
2018-09-24T02:23:26.098Z,1.20
2018-09-24T02:24:26.077Z,1.30
2018-09-24T02:25:26.059Z,1.40
2018-09-24T02:26:26.037Z,1.30
2018-09-24T02:27:26.017Z,1.40
2018-09-24T02:28:25.992Z,1.40
2018-09-24T02:29:25.974Z,1.20
2018-09-24T02:30:25.968Z,1.30
2018-09-24T02:31:25.931Z,1.20
2018-09-24T02:32:25.907Z,1.50
2018-09-24T02:33:25.887Z,1.10
2018-09-24T02:34:25.867Z,1.30
2018-09-24T02:35:25.845Z,1.50
2018-09-24T02:36:25.828Z,1.00
2018-09-24T02:37:25.811Z,1.40
2018-09-24T02:38:25.785Z,1.10
2018-09-24T02:39:25.760Z,1.40
2018-09-24T02:40:25.772Z,1.30
2018-09-24T02:41:25.725Z,1.10
2018-09-24T02:42:25.700Z,1.20
2018-09-24T02:43:25.675Z,1.10
2018-09-24T02:44:25.653Z,1.00
2018-09-24T02:45:25.633Z,1.20
2018-09-24T02:46:25.617Z,1.20
2018-09-24T02:47:25.591Z,1.10
2018-09-24T02:48:25.567Z,1.20
2018-09-24T02:49:25.544Z,1.30
2018-09-24T02:50:25.527Z,1.00
2018-09-24T02:51:25.506Z,1.40
2018-09-24T02:52:25.478Z,1.40
2018-09-24T02:53:25.465Z,1.10
2018-09-24T02:54:25.440Z,1.00
2018-09-24T02:55:25.419Z,1.10
2018-09-24T02:56:25.395Z,1.20
2018-09-24T02:57:25.373Z,1.00
2018-09-24T02:58:25.355Z,1.30
2018-09-24T02:59:25.331Z,1.20
2018-09-24T03:00:25.312Z,1.40
2018-09-24T03:01:25.411Z,1.50
2018-09-24T03:02:25.278Z,1.10
2018-09-24T03:03:25.251Z,1.30
2018-09-24T03:04:25.226Z,1.40
2018-09-24T03:05:25.206Z,1.10
2018-09-24T03:06:25.179Z,1.10
2018-09-24T03:07:25.164Z,1.30
2018-09-24T03:08:25.140Z,0.90
2018-09-24T03:09:25.170Z,1.10
2018-09-24T03:10:25.095Z,1.30
2018-09-24T03:11:25.078Z,1.40
2018-09-24T03:12:25.054Z,1.10
2018-09-24T03:13:25.030Z,1.20
2018-09-24T03:14:25.013Z,1.10
2018-09-24T03:15:24.992Z,1.10
2018-09-24T03:16:24.967Z,1.30
2018-09-24T03:17:24.950Z,1.10
2018-09-24T03:18:24.926Z,1.30
2018-09-24T03:19:24.904Z,1.30
2018-09-24T03:20:24.883Z,1.00
2018-09-24T03:21:24.901Z,1.20
2018-09-24T03:22:24.847Z,1.00
2018-09-24T03:23:24.818Z,1.20
2018-09-24T03:24:24.799Z,1.10
2018-09-24T03:25:24.781Z,1.00
2018-09-24T03:26:24.881Z,1.10
2018-09-24T03:27:24.733Z,1.20
2018-09-24T03:28:24.711Z,1.00
2018-09-24T03:29:24.693Z,1.30
2018-09-24T03:30:24.664Z,1.20
2018-09-24T03:31:24.647Z,1.10
2018-09-24T03:32:24.631Z,1.20
2018-09-24T03:33:24.601Z,1.30
2018-09-24T03:34:24.593Z,1.20
2018-09-24T03:35:24.560Z,1.00
2018-09-24T03:36:24.538Z,0.90
2018-09-24T03:37:24.526Z,1.20
2018-09-24T03:38:24.495Z,1.20
2018-09-24T03:39:24.474Z,1.00
2018-09-24T03:40:24.456Z,1.00
2018-09-24T03:41:24.433Z,1.10
2018-09-24T03:42:24.408Z,1.50
2018-09-24T03:43:24.386Z,1.00
2018-09-24T03:44:24.368Z,1.00
2018-09-24T03:45:24.344Z,0.90
2018-09-24T03:46:24.322Z,1.20
2018-09-24T03:47:24.306Z,1.00
2018-09-24T03:48:24.281Z,1.10
2018-09-24T03:49:24.258Z,1.00
2018-09-24T03:50:24.249Z,1.00
2018-09-24T03:51:24.214Z,1.00
2018-09-24T03:52:24.193Z,1.10
2018-09-24T03:53:24.176Z,1.00
2018-09-24T03:54:24.155Z,1.00
2018-09-24T03:55:24.128Z,1.30
2018-09-24T03:56:24.106Z,1.00
2018-09-24T03:57:24.088Z,1.30
2018-09-24T03:59:08.562Z,1.00
2018-09-24T04:00:08.461Z,1.00
2018-09-24T04:01:08.439Z,1.10
2018-09-24T04:02:08.414Z,1.20
2018-09-24T04:03:08.394Z,1.00
2018-09-24T04:04:08.377Z,0.90
2018-09-24T04:05:08.350Z,1.10
2018-09-24T04:06:08.336Z,1.20
2018-09-24T04:07:08.307Z,1.20
2018-09-24T04:08:08.286Z,0.80
2018-09-24T04:09:08.318Z,1.00
2018-09-24T04:10:08.275Z,1.10
2018-09-24T04:11:08.220Z,1.00
2018-09-24T04:12:08.200Z,0.90
2018-09-24T04:13:08.178Z,1.20
2018-09-24T04:14:08.158Z,1.10
2018-09-24T04:15:08.134Z,1.30
2018-09-24T04:16:08.114Z,1.20
2018-09-24T04:17:08.090Z,0.80
2018-09-24T04:18:08.072Z,0.90
2018-09-24T04:19:08.051Z,1.10
2018-09-24T04:20:08.027Z,0.80
2018-09-24T04:21:08.004Z,1.20
2018-09-24T04:22:07.986Z,1.20
2018-09-24T04:23:07.964Z,1.00
2018-09-24T04:24:07.942Z,1.10
2018-09-24T04:25:07.918Z,1.10
2018-09-24T04:26:07.950Z,1.20
2018-09-24T04:27:07.879Z,0.80
2018-09-24T04:28:07.854Z,1.20
2018-09-24T04:29:07.834Z,1.30
2018-09-24T04:30:07.812Z,1.00
2018-09-24T04:31:07.790Z,1.00
2018-09-24T04:32:07.766Z,0.80
2018-09-24T04:33:07.752Z,1.10
2018-09-24T04:34:07.727Z,1.10
2018-09-24T04:35:07.709Z,0.90
2018-09-24T04:36:07.680Z,1.30
2018-09-24T04:37:07.659Z,0.90
2018-09-24T04:38:07.638Z,0.90
2018-09-24T04:39:07.618Z,1.00
2018-09-24T04:40:07.598Z,0.90
2018-09-24T04:41:07.578Z,1.00
2018-09-24T04:42:07.559Z,1.30
2018-09-24T04:43:07.535Z,1.10
2018-09-24T04:44:07.514Z,0.80
2018-09-24T04:45:07.489Z,1.30
2018-09-24T04:46:07.466Z,0.90
2018-09-24T04:47:07.447Z,0.90
2018-09-24T04:48:07.423Z,1.30
2018-09-24T04:49:07.428Z,0.90
2018-09-24T04:50:07.378Z,1.10
2018-09-24T04:51:07.358Z,1.10
2018-09-24T04:52:07.338Z,0.90
2018-09-24T04:53:07.314Z,1.10
2018-09-24T04:54:07.295Z,1.00
2018-09-24T04:55:07.276Z,0.90
2018-09-24T04:56:07.254Z,1.10
2018-09-24T04:57:07.227Z,0.90
2018-09-24T04:58:07.205Z,1.00
2018-09-24T04:59:07.189Z,0.90
2018-09-24T05:00:07.165Z,1.10
2018-09-24T05:01:07.138Z,0.90
2018-09-24T05:02:07.122Z,0.90
2018-09-24T05:03:07.105Z,1.00
2018-09-24T05:04:07.088Z,1.00
2018-09-24T05:05:07.057Z,0.90
2018-09-24T05:06:07.036Z,1.00
2018-09-24T05:07:07.020Z,0.90
2018-09-24T05:08:06.992Z,1.10
2018-09-24T05:09:06.975Z,0.90
2018-09-24T05:10:06.956Z,1.70
2018-09-24T05:11:06.930Z,1.10
2018-09-24T05:12:06.908Z,1.00
2018-09-24T05:13:06.886Z,1.20
2018-09-24T05:14:06.868Z,2.70
2018-09-24T05:15:06.844Z,3.90
2018-09-24T05:16:06.821Z,1.50
2018-09-24T05:17:06.800Z,1.20
2018-09-24T05:18:06.780Z,1.00
2018-09-24T05:19:06.756Z,1.00
2018-09-24T05:20:06.749Z,1.20
2018-09-24T05:21:06.714Z,1.00
2018-09-24T05:22:06.690Z,1.00
2018-09-24T05:23:06.676Z,0.90
2018-09-24T05:24:06.645Z,0.80
2018-09-24T05:25:06.632Z,0.90
2018-09-24T05:26:06.607Z,1.10
2018-09-24T05:27:06.591Z,0.90
2018-09-24T05:28:06.560Z,0.90
2018-09-24T05:29:06.536Z,0.60
2018-09-24T05:30:06.516Z,1.00
2018-09-24T05:31:06.495Z,0.90
2018-09-24T05:32:06.481Z,0.80
2018-09-24T05:33:06.450Z,1.00
2018-09-24T05:34:06.447Z,0.90
2018-09-24T05:35:06.411Z,0.90
2018-09-24T05:36:06.390Z,0.90
2018-09-24T05:37:06.367Z,1.10
2018-09-24T05:38:06.349Z,0.80
2018-09-24T05:39:06.325Z,0.90
2018-09-24T05:40:06.306Z,0.90
2018-09-24T05:41:06.289Z,1.10
2018-09-24T05:42:06.258Z,0.90
2018-09-24T05:43:06.239Z,1.00
2018-09-24T05:44:06.218Z,1.00
2018-09-24T05:45:06.195Z,1.00
2018-09-24T05:46:06.175Z,0.90
2018-09-24T05:47:06.155Z,1.00
2018-09-24T05:48:06.234Z,0.80
2018-09-24T05:49:06.106Z,1.10
2018-09-24T05:50:06.091Z,1.00
2018-09-24T05:51:06.067Z,1.00
2018-09-24T05:52:06.045Z,0.90
2018-09-24T05:53:06.023Z,0.90
2018-09-24T05:54:06.004Z,1.10
2018-09-24T05:55:05.983Z,1.20
2018-09-24T05:56:05.972Z,1.00
2018-09-24T05:57:05.936Z,0.90
2018-09-24T05:58:05.912Z,1.10
2018-09-24T05:59:05.896Z,0.80
2018-09-24T06:00:05.868Z,1.00
2018-09-24T06:01:05.850Z,0.70
2018-09-24T06:02:05.833Z,1.10
2018-09-24T06:03:05.814Z,0.70
2018-09-24T06:04:05.785Z,0.80
2018-09-24T06:05:05.764Z,1.10
2018-09-24T06:06:05.746Z,0.70
2018-09-24T06:07:05.726Z,1.10
2018-09-24T06:08:05.705Z,1.00
2018-09-24T06:09:05.680Z,0.80
2018-09-24T06:10:05.665Z,1.00
2018-09-24T06:11:05.634Z,0.80
2018-09-24T06:12:05.616Z,1.00
2018-09-24T06:13:05.595Z,1.00
2018-09-24T06:14:05.572Z,0.80
2018-09-24T06:15:05.550Z,0.90
2018-09-24T06:16:05.540Z,1.20
2018-09-24T06:17:05.510Z,0.90
2018-09-24T06:18:05.486Z,0.90
2018-09-24T06:19:05.491Z,0.90
2018-09-24T06:20:05.443Z,0.90
2018-09-24T06:21:05.426Z,1.10
2018-09-24T06:22:05.412Z,0.80
2018-09-24T06:23:05.382Z,1.20
2018-09-24T06:24:05.360Z,1.20
2018-09-24T06:25:05.342Z,0.90
2018-09-24T06:26:05.322Z,0.90
2018-09-24T06:27:05.295Z,0.80
2018-09-24T06:28:05.279Z,1.00
2018-09-24T06:29:05.262Z,0.90
2018-09-24T06:30:05.236Z,1.00
2018-09-24T06:31:05.212Z,1.10
2018-09-24T06:32:05.192Z,0.90
2018-09-24T06:33:05.169Z,1.00
2018-09-24T06:34:05.147Z,0.90
2018-09-24T06:35:05.126Z,0.90
2018-09-24T06:36:05.104Z,1.00
2018-09-24T06:37:05.093Z,1.00
2018-09-24T06:38:05.067Z,0.90
2018-09-24T06:39:05.044Z,0.90
2018-09-24T06:40:05.079Z,1.00
2018-09-24T06:41:05.003Z,1.30
2018-09-24T06:42:04.978Z,1.10
2018-09-24T06:43:04.956Z,1.40
2018-09-24T06:44:04.934Z,1.20
2018-09-24T06:45:04.914Z,1.10
2018-09-24T06:46:04.893Z,1.00
2018-09-24T06:47:04.873Z,1.00
2018-09-24T06:48:04.853Z,0.90
2018-09-24T06:49:04.830Z,1.00
2018-09-24T06:50:04.814Z,0.80
2018-09-24T06:51:04.794Z,1.20
2018-09-24T06:52:04.771Z,1.20
2018-09-24T06:53:04.749Z,0.90
2018-09-24T06:54:04.730Z,1.10
2018-09-24T06:55:04.707Z,0.80
2018-09-24T06:56:04.685Z,1.10
2018-09-24T06:57:04.664Z,1.10
2018-09-24T06:58:04.647Z,1.00
2018-09-24T06:59:04.625Z,1.30
2018-09-24T07:00:04.603Z,1.00
2018-09-24T07:01:04.581Z,1.20
2018-09-24T07:02:04.564Z,1.00
2018-09-24T07:03:04.543Z,1.00
2018-09-24T07:04:04.524Z,0.90
2018-09-24T07:05:04.501Z,1.00
2018-09-24T07:06:04.479Z,1.00
2018-09-24T07:07:04.458Z,0.80
2018-09-24T07:08:04.437Z,0.90
2018-09-24T07:09:04.416Z,1.20
2018-09-24T07:10:04.398Z,1.00
2018-09-24T07:11:04.375Z,0.90
2018-09-24T07:12:04.360Z,1.10
2018-09-24T07:13:04.338Z,1.20
2018-09-24T07:14:04.327Z,0.90
2018-09-24T07:15:04.297Z,1.00
2018-09-24T07:16:04.270Z,1.10
2018-09-24T07:17:04.254Z,0.70
2018-09-24T07:18:04.243Z,1.10
2018-09-24T07:19:04.216Z,0.80
2018-09-24T07:20:04.192Z,0.90
2018-09-24T07:21:04.176Z,0.80
2018-09-24T07:22:04.153Z,0.90
2018-09-24T07:23:04.138Z,1.00
2018-09-24T07:24:04.112Z,0.90
2018-09-24T07:25:04.096Z,1.10
2018-09-24T07:26:04.074Z,1.20
2018-09-24T07:27:04.056Z,1.30
2018-09-24T07:28:04.076Z,1.00
2018-09-24T07:29:04.016Z,0.90
2018-09-24T07:30:03.996Z,1.00
2018-09-24T07:31:03.973Z,0.90
2018-09-24T07:32:03.959Z,1.10
2018-09-24T07:33:03.963Z,1.10
2018-09-24T07:34:03.917Z,1.30
2018-09-24T07:35:03.894Z,0.90
2018-09-24T07:36:03.879Z,0.90
2018-09-24T07:37:03.854Z,1.00
2018-09-24T07:38:03.839Z,0.70
2018-09-24T07:39:03.820Z,0.80
2018-09-24T07:40:03.800Z,1.10
2018-09-24T07:41:03.781Z,1.00
2018-09-24T07:42:03.765Z,1.00
2018-09-24T07:43:03.751Z,0.70
2018-09-24T07:44:03.724Z,1.20
2018-09-24T07:45:03.704Z,0.90
2018-09-24T07:46:03.690Z,1.00
2018-09-24T07:47:03.668Z,0.70
2018-09-24T07:48:03.650Z,1.00
2018-09-24T07:49:03.633Z,0.90
2018-09-24T07:50:03.614Z,0.90
2018-09-24T07:51:03.596Z,0.90
2018-09-24T07:52:03.580Z,1.00
2018-09-24T07:53:03.562Z,0.90
2018-09-24T07:54:03.540Z,0.80
2018-09-24T07:55:03.536Z,1.10
2018-09-24T07:56:03.507Z,1.00
2018-09-24T07:57:03.493Z,0.90
2018-09-24T07:58:03.469Z,0.70
2018-09-24T07:59:03.452Z,0.70
2018-09-24T08:00:03.437Z,0.90
2018-09-24T08:01:03.502Z,0.90
2018-09-24T08:02:03.404Z,0.80
2018-09-24T08:03:03.389Z,0.90
2018-09-24T08:04:03.366Z,1.00
2018-09-24T08:05:03.353Z,0.80
2018-09-24T08:06:03.338Z,1.00
2018-09-24T08:07:03.319Z,0.80
2018-09-24T08:08:03.304Z,1.00
2018-09-24T08:09:03.286Z,0.90
2018-09-24T08:10:03.266Z,0.90
2018-09-24T08:11:03.255Z,0.90
2018-09-24T08:12:03.234Z,0.80
2018-09-24T08:13:03.251Z,0.90
2018-09-24T08:14:03.254Z,0.90
2018-09-24T08:15:03.184Z,0.70
2018-09-24T08:16:03.168Z,0.80
2018-09-24T08:17:03.159Z,0.90
2018-09-24T08:18:03.136Z,0.80
2018-09-24T08:19:03.135Z,0.70
2018-09-24T08:20:03.113Z,0.70
2018-09-24T08:21:03.149Z,0.70
2018-09-24T08:22:03.073Z,1.00
2018-09-24T08:23:03.053Z,1.20
2018-09-24T08:24:03.035Z,0.80
2018-09-24T08:25:03.021Z,0.80
2018-09-24T08:26:03.011Z,0.90
2018-09-24T08:27:02.989Z,0.80
2018-09-24T08:28:02.974Z,0.90
2018-09-24T08:29:03.032Z,0.70
2018-09-24T08:30:02.942Z,0.90
2018-09-24T08:31:02.929Z,0.70
2018-09-24T08:32:02.912Z,0.80
2018-09-24T08:33:02.895Z,0.80
2018-09-24T08:34:02.879Z,0.90
2018-09-24T08:35:02.865Z,0.90
2018-09-24T08:36:02.848Z,0.80
2018-09-24T08:37:02.829Z,0.70
2018-09-24T08:38:02.832Z,0.80
2018-09-24T08:39:02.798Z,1.10
2018-09-24T08:40:02.787Z,0.80
2018-09-24T08:41:02.762Z,0.90
2018-09-24T08:42:02.752Z,0.90
2018-09-24T08:43:02.729Z,0.90
2018-09-24T08:44:02.775Z,0.70
2018-09-24T08:45:02.703Z,1.00
2018-09-24T08:46:02.685Z,0.80
2018-09-24T08:47:02.666Z,0.90
2018-09-24T08:48:02.647Z,0.80
2018-09-24T08:49:02.637Z,0.80
2018-09-24T08:50:02.616Z,0.80
2018-09-24T08:51:02.604Z,0.90
2018-09-24T08:52:02.585Z,0.80
2018-09-24T08:53:02.565Z,0.70
2018-09-24T08:54:02.553Z,1.00
2018-09-24T08:55:02.534Z,1.00
2018-09-24T08:56:02.532Z,0.80
2018-09-24T08:57:02.532Z,0.90
2018-09-24T08:58:02.483Z,0.70
2018-09-24T08:59:02.468Z,0.90
2018-09-24T09:00:02.449Z,0.80
2018-09-24T09:01:02.436Z,0.80
2018-09-24T09:02:02.419Z,0.80
2018-09-24T09:03:02.415Z,0.90
2018-09-24T09:04:02.385Z,1.00
2018-09-24T09:05:02.375Z,0.80
2018-09-24T09:06:02.357Z,0.70
2018-09-24T09:07:02.335Z,0.80
2018-09-24T09:08:02.322Z,0.90
2018-09-24T09:09:02.300Z,0.90
2018-09-24T09:10:02.286Z,0.60
2018-09-24T09:11:02.273Z,0.60
2018-09-24T09:12:02.253Z,0.80
2018-09-24T09:13:02.234Z,0.70
2018-09-24T09:14:02.222Z,0.70
2018-09-24T09:15:02.203Z,1.00
2018-09-24T09:16:02.184Z,0.90
2018-09-24T09:17:02.175Z,0.80
2018-09-24T09:18:02.149Z,1.00
2018-09-24T09:19:02.136Z,0.80
2018-09-24T09:20:02.120Z,0.80
2018-09-24T09:21:02.110Z,0.70
2018-09-24T09:22:02.092Z,0.60
2018-09-24T09:23:02.071Z,0.70
2018-09-24T09:24:02.077Z,0.70
2018-09-24T09:25:02.031Z,0.60
2018-09-24T09:26:02.020Z,0.80
2018-09-24T09:27:02.001Z,0.90
2018-09-24T09:28:01.985Z,0.60
2018-09-24T09:29:01.971Z,0.90
2018-09-24T09:30:01.962Z,0.70
2018-09-24T09:31:01.936Z,0.60
2018-09-24T09:32:01.917Z,0.80
2018-09-24T09:33:01.905Z,0.80
2018-09-24T09:34:01.891Z,0.80
2018-09-24T09:35:01.903Z,0.80
2018-09-24T09:36:01.855Z,0.60
2018-09-24T09:37:01.839Z,0.90
2018-09-24T09:38:01.826Z,0.60
2018-09-24T09:39:01.813Z,0.80
2018-09-24T09:40:01.793Z,0.80
2018-09-24T09:41:01.839Z,0.80
2018-09-24T09:42:01.766Z,0.60
2018-09-24T09:43:01.744Z,0.80
2018-09-24T09:44:01.731Z,0.70
2018-09-24T09:45:01.717Z,0.70
2018-09-24T09:46:01.701Z,0.80
2018-09-24T09:47:01.688Z,0.70
2018-09-24T09:48:01.666Z,0.70
2018-09-24T09:49:01.649Z,0.60
2018-09-24T09:50:01.630Z,0.90
2018-09-24T09:51:01.626Z,0.70
2018-09-24T09:52:01.603Z,0.70
2018-09-24T09:53:01.585Z,0.70
2018-09-24T09:54:01.579Z,0.70
2018-09-24T09:55:01.557Z,0.60
2018-09-24T09:56:01.554Z,0.60
2018-09-24T09:57:01.528Z,0.70
2018-09-24T09:58:01.518Z,0.80
2018-09-24T09:59:01.557Z,0.90
2018-09-24T10:00:01.483Z,0.70
2018-09-24T10:01:01.473Z,0.70
2018-09-24T10:02:01.454Z,0.60
2018-09-24T10:03:01.441Z,0.80
2018-09-24T10:04:01.426Z,0.60
2018-09-24T10:05:01.407Z,0.60
2018-09-24T10:06:01.396Z,0.80
2018-09-24T10:07:01.394Z,0.80
2018-09-24T10:08:01.369Z,1.10
2018-09-24T10:09:01.357Z,0.70
2018-09-24T10:10:01.343Z,1.10
2018-09-24T10:11:01.336Z,0.50
2018-09-24T10:12:01.323Z,0.70
2018-09-24T10:13:01.301Z,0.60
2018-09-24T10:14:01.292Z,0.60
2018-09-24T10:15:01.279Z,0.50
2018-09-24T10:16:01.262Z,0.70
2018-09-24T10:17:01.252Z,0.70
2018-09-24T10:18:01.242Z,0.70
2018-09-24T10:19:01.231Z,0.70
2018-09-24T10:20:01.213Z,0.50
2018-09-24T10:21:01.201Z,0.60
2018-09-24T10:22:01.189Z,0.50
2018-09-24T10:23:01.177Z,0.60
2018-09-24T10:24:01.170Z,0.50
2018-09-24T10:25:01.159Z,0.60
2018-09-24T10:26:01.140Z,0.60
2018-09-24T10:27:01.130Z,0.60
2018-09-24T10:28:01.118Z,0.50
2018-09-24T10:29:01.107Z,0.60
2018-09-24T10:30:01.103Z,0.50
2018-09-24T10:31:01.088Z,0.70
2018-09-24T10:32:01.069Z,0.70
2018-09-24T10:33:01.056Z,0.60
2018-09-24T10:34:01.041Z,0.50
2018-09-24T10:35:01.032Z,0.60
2018-09-24T10:36:01.017Z,0.60
2018-09-24T10:37:01.011Z,0.60
2018-09-24T10:38:01.000Z,0.50
2018-09-24T10:39:00.983Z,0.60
2018-09-24T10:40:00.973Z,0.60
2018-09-24T10:41:00.960Z,0.50
2018-09-24T10:42:00.948Z,0.50
2018-09-24T10:43:00.936Z,0.50
2018-09-24T10:44:00.930Z,0.50
2018-09-24T10:45:00.913Z,0.50
2018-09-24T10:46:00.922Z,0.50
2018-09-24T10:47:00.892Z,0.70
2018-09-24T10:48:00.878Z,0.80
2018-09-24T10:49:00.874Z,0.60
2018-09-24T10:50:00.857Z,0.50
2018-09-24T10:51:00.849Z,0.40
2018-09-24T10:52:00.838Z,0.50
2018-09-24T10:53:00.835Z,0.70
2018-09-24T10:54:00.815Z,0.50
2018-09-24T10:55:00.802Z,0.50
2018-09-24T10:56:00.802Z,0.50
2018-09-24T10:57:00.783Z,0.60
2018-09-24T10:58:00.774Z,0.50
2018-09-24T10:59:00.768Z,0.50
2018-09-24T11:00:00.751Z,0.50
2018-09-24T11:01:00.754Z,0.60
2018-09-24T11:02:00.734Z,0.50
2018-09-24T11:03:00.725Z,0.90
2018-09-24T11:04:00.718Z,0.60
2018-09-24T11:05:00.700Z,0.70
2018-09-24T11:06:00.696Z,0.80
2018-09-24T11:07:00.686Z,0.40
2018-09-24T11:08:00.672Z,0.40
2018-09-24T11:09:00.667Z,0.40
2018-09-24T11:10:00.673Z,0.40
2018-09-24T11:11:00.644Z,0.70
2018-09-24T11:12:00.630Z,0.40
2018-09-24T11:13:00.620Z,0.40
2018-09-24T11:14:00.608Z,0.80
2018-09-24T11:15:00.599Z,0.50
2018-09-24T11:16:00.700Z,0.40
2018-09-24T11:17:00.752Z,0.50
2018-09-24T11:18:00.590Z,0.40
2018-09-24T11:19:00.554Z,0.70
2018-09-24T11:20:00.540Z,0.50
2018-09-24T11:21:00.531Z,0.60
2018-09-24T11:22:00.543Z,0.60
2018-09-24T11:23:00.512Z,0.50
2018-09-24T11:24:00.502Z,0.50
2018-09-24T11:25:00.491Z,0.70
2018-09-24T11:26:00.480Z,0.50
2018-09-24T11:27:00.468Z,0.40
2018-09-24T11:28:00.457Z,0.50
2018-09-24T11:29:00.448Z,0.40
2018-09-24T11:30:00.441Z,0.40
2018-09-24T11:31:00.426Z,0.50
2018-09-24T11:32:00.425Z,0.40
2018-09-24T11:33:00.408Z,0.40
2018-09-24T11:34:00.399Z,0.50
2018-09-24T11:35:00.395Z,0.60
2018-09-24T11:36:00.389Z,0.50
2018-09-24T11:37:00.372Z,0.50
2018-09-24T11:38:00.363Z,0.50
2018-09-24T11:39:00.352Z,0.50
2018-09-24T11:40:00.346Z,0.30
2018-09-24T11:41:00.333Z,0.40
2018-09-24T11:42:00.352Z,0.30
2018-09-24T11:43:00.315Z,0.30
2018-09-24T11:44:00.316Z,0.30
2018-09-24T11:45:00.293Z,0.40
2018-09-24T11:46:00.287Z,0.50
2018-09-24T11:47:00.362Z,0.30
2018-09-24T11:48:00.265Z,0.40
2018-09-24T11:49:00.253Z,0.50
2018-09-24T11:50:00.293Z,0.40
2018-09-24T11:51:00.229Z,0.40
2018-09-24T11:52:00.227Z,0.50
2018-09-24T11:53:00.205Z,0.40
2018-09-24T11:54:00.195Z,0.40
2018-09-24T11:55:00.183Z,0.40
2018-09-24T11:56:00.171Z,0.50
2018-09-24T11:57:00.161Z,0.60
2018-09-24T11:58:00.143Z,0.70
2018-09-24T11:59:00.145Z,0.80
2018-09-24T12:00:00.121Z,0.50
2018-09-24T12:01:00.106Z,0.40
2018-09-24T12:02:00.110Z,0.40
2018-09-24T12:03:00.077Z,0.40
2018-09-24T12:04:00.065Z,0.40
2018-09-24T12:05:00.049Z,0.40
2018-09-24T12:06:00.035Z,0.40
2018-09-24T12:07:00.019Z,0.50
2018-09-24T12:08:00.015Z,0.50
2018-09-24T12:08:59.991Z,0.40
2018-09-24T12:09:59.974Z,0.40
2018-09-24T12:10:59.962Z,0.30
2018-09-24T12:11:59.944Z,0.30
2018-09-24T12:12:59.934Z,0.40
2018-09-24T12:13:59.918Z,0.40
2018-09-24T12:14:59.899Z,0.40
2018-09-24T12:15:59.881Z,0.40
2018-09-24T12:16:59.865Z,0.50
2018-09-24T12:17:59.861Z,0.40
2018-09-24T12:18:59.868Z,0.40
2018-09-24T12:19:59.822Z,0.30
2018-09-24T12:20:59.803Z,0.40
2018-09-24T12:21:59.790Z,0.40
2018-09-24T12:22:59.772Z,0.30
2018-09-24T12:23:59.758Z,0.30
2018-09-24T12:24:59.741Z,0.40
2018-09-24T12:25:59.722Z,0.30
2018-09-24T12:26:59.706Z,0.30
2018-09-24T12:27:59.687Z,0.40
2018-09-24T12:28:59.668Z,0.30
2018-09-24T12:29:59.657Z,0.40
2018-09-24T12:30:59.637Z,0.40
2018-09-24T12:31:59.619Z,0.30
2018-09-24T12:32:59.601Z,0.40
2018-09-24T12:33:59.583Z,0.50
2018-09-24T12:34:59.567Z,1.10
2018-09-24T12:35:59.549Z,0.60
2018-09-24T12:36:59.532Z,0.50
2018-09-24T12:37:59.515Z,0.50
2018-09-24T12:38:59.495Z,0.50
2018-09-24T12:39:59.480Z,0.40
2018-09-24T12:40:59.461Z,0.50
2018-09-24T12:41:59.450Z,0.50
2018-09-24T12:42:59.429Z,0.50
2018-09-24T12:43:59.409Z,0.40
2018-09-24T12:44:59.391Z,0.50
2018-09-24T12:45:59.376Z,0.40
2018-09-24T12:46:59.359Z,0.40
2018-09-24T12:47:59.388Z,0.30
2018-09-24T12:48:59.317Z,0.40
2018-09-24T12:49:59.301Z,0.40
2018-09-24T12:50:59.289Z,0.50
2018-09-24T12:51:59.262Z,0.40
2018-09-24T12:52:59.248Z,0.30
2018-09-24T12:53:59.230Z,0.30
2018-09-24T12:54:59.209Z,0.30
2018-09-24T12:55:59.191Z,0.60
2018-09-24T12:56:59.169Z,0.40
2018-09-24T12:57:59.164Z,0.40
2018-09-24T12:58:59.156Z,0.40
2018-09-24T12:59:59.111Z,0.40
2018-09-24T13:00:59.099Z,0.40
2018-09-24T13:01:59.079Z,0.40
2018-09-24T13:02:59.060Z,0.40
2018-09-24T13:03:59.039Z,0.50
2018-09-24T13:04:59.019Z,0.50
2018-09-24T13:05:59.004Z,0.30
2018-09-24T13:06:58.989Z,0.50
2018-09-24T13:07:58.973Z,0.40
2018-09-24T13:08:58.957Z,0.40
2018-09-24T13:09:58.931Z,0.40
2018-09-24T13:10:58.913Z,0.40
2018-09-24T13:11:58.893Z,0.60
2018-09-24T13:12:58.873Z,0.30
2018-09-24T13:13:58.861Z,0.30
2018-09-24T13:14:58.835Z,0.30
2018-09-24T13:15:58.817Z,0.30
2018-09-24T13:16:58.802Z,0.30
2018-09-24T13:17:58.781Z,0.40
2018-09-24T13:18:58.821Z,0.30